createdAt,value
2018-04-15T00:00:27.099Z,7.77
2018-04-15T00:02:54.585Z,6.50
2018-04-15T00:05:22.127Z,5.97
2018-04-15T00:07:49.630Z,9.10
2018-04-15T00:10:17.133Z,5.00
2018-04-15T00:12:44.655Z,10.57
2018-04-15T00:15:12.942Z,6.90
2018-04-15T00:17:41.241Z,4.93
2018-04-15T00:20:08.754Z,4.20
2018-04-15T00:22:36.266Z,5.30
2018-04-15T00:25:04.556Z,6.73
2018-04-15T00:27:32.076Z,3.87
2018-04-15T00:29:59.596Z,6.77
2018-04-15T00:32:27.110Z,7.37
2018-04-15T00:34:54.633Z,5.13
2018-04-15T00:37:22.139Z,6.80
2018-04-15T00:39:49.653Z,3.80
2018-04-15T00:42:17.173Z,3.90
2018-04-15T00:44:44.668Z,5.10
2018-04-15T00:47:12.194Z,4.07
2018-04-15T00:49:39.727Z,4.00
2018-04-15T00:52:07.224Z,3.37
2018-04-15T00:54:35.525Z,5.20
2018-04-15T00:57:03.816Z,3.77
2018-04-15T00:59:31.338Z,3.47
2018-04-15T01:01:58.830Z,2.90
2018-04-15T01:04:27.141Z,8.40
2018-04-15T01:06:54.645Z,3.97
2018-04-15T01:09:22.159Z,3.77
2018-04-15T01:11:49.679Z,4.47
2018-04-15T01:14:17.191Z,14.53
2018-04-15T01:16:44.724Z,4.47
2018-04-15T01:19:13.011Z,10.00
2018-04-15T01:21:41.279Z,4.13
2018-04-15T01:24:09.563Z,5.23
2018-04-15T01:26:37.841Z,5.00
2018-04-15T01:29:06.126Z,5.13
2018-04-15T01:31:34.439Z,4.43
2018-04-15T01:34:01.974Z,6.83
2018-04-15T01:36:30.251Z,7.53
2018-04-15T01:38:58.528Z,3.90
2018-04-15T01:41:26.058Z,7.40
2018-04-15T01:43:53.566Z,5.57
2018-04-15T01:46:21.946Z,4.73
2018-04-15T01:48:50.235Z,3.23
2018-04-15T01:51:18.499Z,4.47
2018-04-15T01:53:46.037Z,3.80
2018-04-15T01:56:13.547Z,3.27
2018-04-15T01:58:41.830Z,5.07
2018-04-15T02:01:09.347Z,3.60
2018-04-15T02:03:36.875Z,4.10
2018-04-15T02:06:04.380Z,7.67
2018-04-15T02:08:31.881Z,6.30
2018-04-15T02:11:00.183Z,5.17
2018-04-15T02:13:27.686Z,2.50
2018-04-15T02:15:55.991Z,5.47
2018-04-15T02:18:24.276Z,3.80
2018-04-15T02:20:52.573Z,4.37
2018-04-15T02:23:20.088Z,3.43
2018-04-15T02:25:47.599Z,8.13
2018-04-15T02:28:15.115Z,4.50
2018-04-15T02:30:42.615Z,6.20
2018-04-15T02:33:10.899Z,4.30
2018-04-15T02:35:39.161Z,3.50
2018-04-15T02:38:06.687Z,3.20
2018-04-15T02:40:34.212Z,5.63
2018-04-15T02:43:01.719Z,3.10
2018-04-15T02:45:29.253Z,3.70
2018-04-15T02:47:56.755Z,3.33
2018-04-15T02:50:24.255Z,3.10
2018-04-15T02:52:52.551Z,3.80
2018-04-15T02:55:20.073Z,3.40
2018-04-15T02:57:47.597Z,6.00
2018-04-15T03:00:15.118Z,3.50
2018-04-15T03:02:42.627Z,4.10
2018-04-15T03:05:10.147Z,7.93
2018-04-15T03:07:38.416Z,6.13
2018-04-15T03:10:05.951Z,3.80
2018-04-15T03:12:33.465Z,4.07
2018-04-15T03:15:01.743Z,2.10
2018-04-15T03:17:30.018Z,2.43
2018-04-15T03:19:58.285Z,3.47
2018-04-15T03:22:25.824Z,7.30
2018-04-15T03:24:53.335Z,4.30
2018-04-15T03:27:21.640Z,5.23
2018-04-15T03:29:49.160Z,4.53
2018-04-15T03:32:16.686Z,5.00
2018-04-15T03:34:44.195Z,6.50
2018-04-15T03:37:12.473Z,5.67
2018-04-15T03:39:39.992Z,4.00
2018-04-15T03:42:07.509Z,2.90
2018-04-15T03:44:35.795Z,4.13
2018-04-15T03:47:04.098Z,2.23
2018-04-15T03:49:31.608Z,2.40
2018-04-15T03:51:59.118Z,2.50
2018-04-15T03:54:26.638Z,3.10
2018-04-15T03:56:54.152Z,2.43
2018-04-15T03:59:21.660Z,2.43
2018-04-15T04:01:49.194Z,2.87
2018-04-15T04:04:16.702Z,3.87
2018-04-15T04:06:44.212Z,2.83
2018-04-15T04:09:11.724Z,3.60
2018-04-15T04:11:39.234Z,5.27
2018-04-15T04:14:06.760Z,7.27
2018-04-15T04:16:34.274Z,3.60
2018-04-15T04:19:13.766Z,4.53
2018-04-15T04:21:53.861Z,3.00
2018-04-15T04:24:33.459Z,6.90
2018-04-15T04:27:01.744Z,4.30
2018-04-15T04:29:30.032Z,3.30
2018-04-15T04:31:58.276Z,3.33
2018-04-15T04:34:27.279Z,7.60
2018-04-15T04:36:54.805Z,4.10
2018-04-15T04:39:22.319Z,3.73
2018-04-15T04:41:49.835Z,3.60
2018-04-15T04:44:17.349Z,4.60
2018-04-15T04:46:45.653Z,3.73
2018-04-15T04:49:13.169Z,8.20
2018-04-15T04:51:40.687Z,4.77
2018-04-15T04:54:08.213Z,3.90
2018-04-15T04:56:35.717Z,3.67
2018-04-15T04:59:03.223Z,3.47
2018-04-15T05:01:30.758Z,3.70
2018-04-15T05:03:58.268Z,4.67
2018-04-15T05:06:25.805Z,11.53
2018-04-15T05:08:53.315Z,4.43
2018-04-15T05:11:21.601Z,9.80
2018-04-15T05:13:49.076Z,5.50
2018-04-15T05:16:16.612Z,5.40
2018-04-15T05:18:44.891Z,5.50
2018-04-15T05:21:13.179Z,6.37
2018-04-15T05:23:41.476Z,6.40
2018-04-15T05:26:08.981Z,6.20
2018-04-15T05:28:36.530Z,7.00
2018-04-15T05:31:04.023Z,8.33
2018-04-15T05:33:33.575Z,6.90
2018-04-15T05:36:01.100Z,11.17
2018-04-15T05:38:28.620Z,5.47
2018-04-15T05:41:00.275Z,6.10
2018-04-15T05:43:36.217Z,5.43
2018-04-15T05:46:08.863Z,4.77
2018-04-15T05:48:40.775Z,8.67
2018-04-15T05:51:08.627Z,13.67
2018-04-15T05:53:36.155Z,4.33
2018-04-15T05:56:04.511Z,9.40
2018-04-15T05:58:32.052Z,5.03
2018-04-15T06:00:59.564Z,3.87
2018-04-15T06:03:27.083Z,5.47
2018-04-15T06:05:54.592Z,6.40
2018-04-15T06:08:22.138Z,4.60
2018-04-15T06:10:49.657Z,3.27
2018-04-15T06:13:17.208Z,5.67
2018-04-15T06:15:45.705Z,4.20
2018-04-15T06:18:15.109Z,3.67
2018-04-15T06:20:45.920Z,5.83
2018-04-15T06:23:22.462Z,3.13
2018-04-15T06:25:54.264Z,3.77
2018-04-15T06:28:28.325Z,7.80
2018-04-15T06:30:57.218Z,2.30
2018-04-15T06:33:24.710Z,3.43
2018-04-15T06:35:52.240Z,13.63
2018-04-15T06:38:19.774Z,11.27
2018-04-15T06:40:51.286Z,6.30
2018-04-15T06:43:23.769Z,3.30
2018-04-15T06:45:56.371Z,3.63
2018-04-15T06:48:28.643Z,3.57
2018-04-15T06:50:58.485Z,4.03
2018-04-15T06:53:26.094Z,3.83
2018-04-15T06:55:53.629Z,4.83
2018-04-15T06:58:21.163Z,5.17
2018-04-15T07:00:49.460Z,3.20
2018-04-15T07:03:16.985Z,3.17
2018-04-15T07:05:44.537Z,4.00
2018-04-15T07:08:12.080Z,5.53
2018-04-15T07:10:39.601Z,6.50
2018-04-15T07:13:07.150Z,3.70
2018-04-15T07:15:34.678Z,5.73
2018-04-15T07:18:02.337Z,2.77
2018-04-15T07:20:29.861Z,3.20
2018-04-15T07:22:58.149Z,7.03
2018-04-15T07:25:25.672Z,2.97
2018-04-15T07:27:53.198Z,3.87
2018-04-15T07:30:20.752Z,4.07
2018-04-15T07:32:48.277Z,5.60
2018-04-15T07:35:15.813Z,4.00
2018-04-15T07:37:43.343Z,3.70
2018-04-15T07:40:10.853Z,3.03
2018-04-15T07:42:38.388Z,4.37
2018-04-15T07:45:05.905Z,8.53
2018-04-15T07:47:34.193Z,2.60
2018-04-15T07:50:02.499Z,6.53
2018-04-15T07:52:30.024Z,5.93
2018-04-15T07:54:57.578Z,3.10
2018-04-15T07:57:25.100Z,4.87
2018-04-15T07:59:53.381Z,5.43
2018-04-15T08:02:20.960Z,5.23
2018-04-15T08:04:48.443Z,4.37
2018-04-15T08:07:15.970Z,4.20
2018-04-15T08:09:43.481Z,4.80
2018-04-15T08:12:11.000Z,5.60
2018-04-15T08:14:38.530Z,4.07
2018-04-15T08:17:06.852Z,3.80
2018-04-15T08:19:34.364Z,6.17
2018-04-15T08:22:02.703Z,6.37
2018-04-15T08:24:30.245Z,4.13
2018-04-15T08:26:57.758Z,4.67
2018-04-15T08:29:25.271Z,12.33
2018-04-15T08:31:52.792Z,3.50
2018-04-15T08:34:20.308Z,5.33
2018-04-15T08:36:47.858Z,3.60
2018-04-15T08:39:15.388Z,4.63
2018-04-15T08:41:43.673Z,5.20
2018-04-15T08:44:11.972Z,3.37
2018-04-15T08:46:39.483Z,4.60
2018-04-15T08:49:07.006Z,3.00
2018-04-15T08:51:34.545Z,6.53
2018-04-15T08:54:02.839Z,3.30
2018-04-15T08:56:31.142Z,5.43
2018-04-15T08:58:58.670Z,4.63
2018-04-15T09:01:26.942Z,4.17
2018-04-15T09:03:54.464Z,3.90
2018-04-15T09:06:21.978Z,3.00
2018-04-15T09:08:50.268Z,11.60
2018-04-15T09:11:18.542Z,4.30
2018-04-15T09:13:46.852Z,3.07
2018-04-15T09:16:14.384Z,6.07
2018-04-15T09:18:41.896Z,4.93
2018-04-15T09:21:09.444Z,5.07
2018-04-15T09:23:36.962Z,3.50
2018-04-15T09:26:04.488Z,5.03
2018-04-15T09:28:32.018Z,4.60
2018-04-15T09:31:05.996Z,5.43
2018-04-15T09:33:33.526Z,3.03
2018-04-15T09:36:01.055Z,4.73
2018-04-15T09:38:29.358Z,4.17
2018-04-15T09:40:56.882Z,4.20
2018-04-15T09:43:24.415Z,6.53
2018-04-15T09:45:51.947Z,4.30
2018-04-15T09:48:19.508Z,7.50
2018-04-15T09:50:47.039Z,6.43
2018-04-15T09:53:15.358Z,2.87
2018-04-15T09:55:42.890Z,3.80
2018-04-15T09:58:11.186Z,4.47
2018-04-15T10:00:38.723Z,2.67
2018-04-15T10:03:06.264Z,5.50
2018-04-15T10:05:33.793Z,2.60
2018-04-15T10:08:01.343Z,2.37
2018-04-15T10:10:28.892Z,3.20
2018-04-15T10:12:57.213Z,4.43
2018-04-15T10:15:24.754Z,6.40
2018-04-15T10:17:52.329Z,4.90
2018-04-15T10:20:19.997Z,4.90
2018-04-15T10:22:47.541Z,9.50
2018-04-15T10:25:15.832Z,3.03
2018-04-15T10:27:43.340Z,3.63
2018-04-15T10:30:10.856Z,6.50
2018-04-15T10:32:38.435Z,4.23
2018-04-15T10:35:05.944Z,4.43
2018-04-15T10:37:33.500Z,3.00
2018-04-15T10:40:01.031Z,3.10
2018-04-15T10:42:28.553Z,9.13
2018-04-15T10:44:56.233Z,4.73
2018-04-15T10:47:24.504Z,3.70
2018-04-15T10:49:52.026Z,2.20
2018-04-15T10:52:19.588Z,2.00
2018-04-15T10:54:47.158Z,2.40
2018-04-15T10:57:14.669Z,3.67
2018-04-15T10:59:42.964Z,1.83
2018-04-15T11:02:10.501Z,3.80
2018-04-15T11:04:38.815Z,2.27
2018-04-15T11:07:06.356Z,2.30
2018-04-15T11:09:34.639Z,3.90
2018-04-15T11:12:02.990Z,3.20
2018-04-15T11:14:30.531Z,14.40
2018-04-15T11:16:58.058Z,2.30
2018-04-15T11:19:26.355Z,8.03
2018-04-15T11:21:53.868Z,4.93
2018-04-15T11:24:21.447Z,2.40
2018-04-15T11:26:49.240Z,5.73
2018-04-15T11:29:16.838Z,4.87
2018-04-15T11:31:44.407Z,3.47
2018-04-15T11:34:11.959Z,1.80
2018-04-15T11:36:39.505Z,1.60
2018-04-15T11:39:07.022Z,5.37
2018-04-15T11:41:34.558Z,3.70
2018-04-15T11:44:02.096Z,3.73
2018-04-15T11:46:29.659Z,4.33
2018-04-15T11:48:57.173Z,3.70
2018-04-15T11:51:24.748Z,3.63
2018-04-15T11:53:52.271Z,1.90
2018-04-15T11:56:19.787Z,1.83
2018-04-15T11:58:47.364Z,2.70
2018-04-15T12:01:15.646Z,2.80
2018-04-15T12:03:43.950Z,2.83
2018-04-15T12:06:11.509Z,4.40
2018-04-15T12:08:39.061Z,3.70
2018-04-15T12:11:07.353Z,3.33
2018-04-15T12:13:34.899Z,1.93
2018-04-15T12:16:03.191Z,2.47
2018-04-15T12:18:31.466Z,4.33
2018-04-15T12:20:59.788Z,4.93
2018-04-15T12:23:27.283Z,1.80
2018-04-15T12:25:54.800Z,7.87
2018-04-15T12:28:22.334Z,4.90
2018-04-15T12:30:50.615Z,3.73
2018-04-15T12:33:18.902Z,5.63
2018-04-15T12:35:47.206Z,13.37
2018-04-15T12:38:15.641Z,2.77
2018-04-15T12:40:43.187Z,5.27
2018-04-15T12:43:10.727Z,3.53
2018-04-15T12:45:38.250Z,2.47
2018-04-15T12:48:05.796Z,4.80
2018-04-15T12:50:33.307Z,4.00
2018-04-15T12:53:00.850Z,5.40
2018-04-15T12:55:29.136Z,5.07
2018-04-15T12:57:57.427Z,5.90
2018-04-15T13:00:24.949Z,6.73
2018-04-15T13:02:52.489Z,2.73
2018-04-15T13:05:20.038Z,4.33
2018-04-15T13:07:47.617Z,2.63
2018-04-15T13:10:15.166Z,1.80
2018-04-15T13:12:42.676Z,5.33
2018-04-15T13:15:10.201Z,3.87
2018-04-15T13:17:37.719Z,4.60
2018-04-15T13:20:06.027Z,3.40
2018-04-15T13:22:33.549Z,3.17
2018-04-15T13:25:01.102Z,3.27
2018-04-15T13:27:30.116Z,5.70
2018-04-15T13:29:57.636Z,3.13
2018-04-15T13:32:25.167Z,5.20
2018-04-15T13:34:52.697Z,10.63
2018-04-15T13:37:20.229Z,5.00
2018-04-15T13:39:47.743Z,4.10
2018-04-15T13:42:16.087Z,3.20
2018-04-15T13:44:43.597Z,3.93
2018-04-15T13:47:11.865Z,4.17
2018-04-15T13:49:40.168Z,5.90
2018-04-15T13:52:07.709Z,2.27
2018-04-15T13:54:36.002Z,9.30
2018-04-15T13:57:04.333Z,2.60
2018-04-15T13:59:31.877Z,2.97
2018-04-15T14:01:59.409Z,2.33
2018-04-15T14:04:27.723Z,5.20
2018-04-15T14:06:55.234Z,3.80
2018-04-15T14:09:22.755Z,4.90
2018-04-15T14:11:50.338Z,3.53
2018-04-15T14:14:17.844Z,6.40
2018-04-15T14:16:46.158Z,11.03
2018-04-15T14:19:13.677Z,3.10
2018-04-15T14:21:41.214Z,3.00
2018-04-15T14:24:08.768Z,6.20
2018-04-15T14:26:36.349Z,16.00
2018-04-15T14:29:03.906Z,3.43
2018-04-15T14:31:31.435Z,2.80
2018-04-15T14:33:58.936Z,5.40
2018-04-15T14:36:26.447Z,4.13
2018-04-15T14:38:54.763Z,3.90
2018-04-15T14:41:22.339Z,2.53
2018-04-15T14:43:49.957Z,29.40
2018-04-15T14:46:18.279Z,20.20
2018-04-15T14:48:45.815Z,28.70
2018-04-15T14:51:13.357Z,33.00
2018-04-15T14:53:41.653Z,13.00
2018-04-15T14:56:09.955Z,17.03
2018-04-15T14:58:37.484Z,27.70
2018-04-15T15:01:05.779Z,103.60
2018-04-15T15:03:34.113Z,119.33
2018-04-15T15:06:06.862Z,5.10
2018-04-15T15:08:34.452Z,8.97
2018-04-15T15:11:01.998Z,17.87
2018-04-15T15:13:29.838Z,20.10
2018-04-15T15:15:57.400Z,10.60
2018-04-15T15:18:25.809Z,17.90
2018-04-15T15:20:53.389Z,13.90
2018-04-15T15:23:20.967Z,15.83
2018-04-15T15:25:48.577Z,28.73
2018-04-15T15:28:16.873Z,14.90
2018-04-15T15:30:44.500Z,13.93
2018-04-15T15:33:12.031Z,14.40
2018-04-15T15:35:39.592Z,8.87
2018-04-15T15:38:07.169Z,11.47
2018-04-15T15:40:34.692Z,12.77
2018-04-15T15:43:03.018Z,10.23
2018-04-15T15:45:30.563Z,16.70
2018-04-15T15:47:58.099Z,11.40
2018-04-15T15:50:26.403Z,10.97
2018-04-15T15:52:53.929Z,9.00
2018-04-15T15:55:21.496Z,9.57
2018-04-15T15:57:49.766Z,7.97
2018-04-15T16:00:17.294Z,7.30
2018-04-15T16:02:44.812Z,7.80
2018-04-15T16:05:13.094Z,8.43
2018-04-15T16:07:41.470Z,6.07
2018-04-15T16:10:09.906Z,7.70
2018-04-15T16:12:37.445Z,14.37
2018-04-15T16:15:05.117Z,7.53
2018-04-15T16:17:32.655Z,8.27
2018-04-15T16:20:00.959Z,8.57
2018-04-15T16:22:28.471Z,11.30
2018-04-15T16:24:56.004Z,7.23
2018-04-15T16:27:23.524Z,7.60
2018-04-15T16:29:51.878Z,9.93
2018-04-15T16:32:19.430Z,11.90
2018-04-15T16:34:46.960Z,14.53
2018-04-15T16:37:14.549Z,12.90
2018-04-15T16:39:42.074Z,11.53
2018-04-15T16:42:10.386Z,9.53
2018-04-15T16:44:38.017Z,10.20
2018-04-15T16:47:05.552Z,9.83
2018-04-15T16:49:33.088Z,7.97
2018-04-15T16:52:00.617Z,7.90
2018-04-15T16:54:28.193Z,10.70
2018-04-15T16:56:55.747Z,9.20
2018-04-15T16:59:24.075Z,9.53
2018-04-15T17:01:51.628Z,12.47
2018-04-15T17:04:19.167Z,8.00
2018-04-15T17:06:46.723Z,8.43
2018-04-15T17:09:14.287Z,8.70
2018-04-15T17:11:41.873Z,14.10
2018-04-15T17:14:09.416Z,8.47
2018-04-15T17:16:36.954Z,9.60
2018-04-15T17:19:05.311Z,10.17
2018-04-15T17:21:32.878Z,9.57
2018-04-15T17:24:00.450Z,8.77
2018-04-15T17:26:28.051Z,13.30
2018-04-15T17:28:55.647Z,12.23
2018-04-15T17:31:23.202Z,11.33
2018-04-15T17:33:50.904Z,7.93
2018-04-15T17:36:18.482Z,6.37
2018-04-15T17:38:46.205Z,11.60
2018-04-15T17:41:13.825Z,8.13
2018-04-15T17:43:41.399Z,8.30
2018-04-15T17:46:09.826Z,10.47
2018-04-15T17:48:37.393Z,8.73
2018-04-15T17:51:04.960Z,12.37
2018-04-15T17:53:32.556Z,9.57
2018-04-15T17:56:00.292Z,11.03
2018-04-15T17:58:27.859Z,8.53
2018-04-15T18:00:55.426Z,9.47
2018-04-15T18:03:23.074Z,8.60
2018-04-15T18:05:50.640Z,10.13
2018-04-15T18:08:18.215Z,9.53
2018-04-15T18:10:45.858Z,9.70
2018-04-15T18:13:13.418Z,6.50
2018-04-15T18:15:41.761Z,8.67
2018-04-15T18:18:09.382Z,11.63
2018-04-15T18:20:37.070Z,6.83
2018-04-15T18:23:04.685Z,9.37
2018-04-15T18:25:33.108Z,8.40
2018-04-15T18:28:00.734Z,11.90
2018-04-15T18:30:29.175Z,13.40
2018-04-15T18:32:56.827Z,10.97
2018-04-15T18:35:24.454Z,7.00
2018-04-15T18:37:53.016Z,10.03
2018-04-15T18:40:20.733Z,7.90
2018-04-15T18:42:48.530Z,9.33
2018-04-15T18:45:17.394Z,6.13
2018-04-15T18:47:45.082Z,10.23
2018-04-15T18:50:12.905Z,10.30
2018-04-15T18:52:42.578Z,6.50
2018-04-15T18:55:10.644Z,9.77
2018-04-15T18:57:38.622Z,8.00
2018-04-15T19:00:06.602Z,9.00
2018-04-15T19:02:35.297Z,8.77
2018-04-15T19:05:03.259Z,8.30
2018-04-15T19:07:32.462Z,7.07
2018-04-15T19:10:00.434Z,10.57
2018-04-15T19:12:28.215Z,11.23
2018-04-15T19:14:56.003Z,7.50
2018-04-15T19:17:24.770Z,10.23
2018-04-15T19:19:52.639Z,9.47
2018-04-15T19:22:20.521Z,7.20
2018-04-15T19:24:48.381Z,10.30
2018-04-15T19:27:16.906Z,12.90
2018-04-15T19:29:44.617Z,8.80
2018-04-15T19:32:12.513Z,11.10
2018-04-15T19:34:40.284Z,7.07
2018-04-15T19:37:08.895Z,8.27
2018-04-15T19:39:36.766Z,9.40
2018-04-15T19:42:04.505Z,8.57
2018-04-15T19:44:32.286Z,8.83
2018-04-15T19:47:00.157Z,12.03
2018-04-15T19:49:27.948Z,8.80
2018-04-15T19:51:56.353Z,15.47
2018-04-15T19:54:24.904Z,7.77
2018-04-15T19:56:52.901Z,8.63
2018-04-15T19:59:21.341Z,7.47
2018-04-15T20:01:48.929Z,10.00
2018-04-15T20:04:16.536Z,10.77
2018-04-15T20:06:44.923Z,16.20
2018-04-15T20:09:12.721Z,8.47
2018-04-15T20:11:40.386Z,7.67
2018-04-15T20:14:08.177Z,9.63
2018-04-15T20:16:35.808Z,6.67
2018-04-15T20:19:03.424Z,11.10
2018-04-15T20:21:31.840Z,9.20
2018-04-15T20:23:59.641Z,10.10
2018-04-15T20:26:27.302Z,9.57
2018-04-15T20:28:54.945Z,10.57
2018-04-15T20:31:22.554Z,14.20
2018-04-15T20:33:50.754Z,13.17
2018-04-15T20:36:18.347Z,12.03
2018-04-15T20:38:46.696Z,9.57
2018-04-15T20:41:14.341Z,8.03
2018-04-15T20:43:41.951Z,8.40
2018-04-15T20:46:09.598Z,11.47
2018-04-15T20:48:37.165Z,11.37
2018-04-15T20:51:04.822Z,8.67
2018-04-15T20:53:32.424Z,9.67
2018-04-15T20:56:00.846Z,8.93
2018-04-15T20:58:28.370Z,9.53
2018-04-15T21:00:56.695Z,13.40
2018-04-15T21:03:24.297Z,9.60
2018-04-15T21:05:51.918Z,9.83
2018-04-15T21:08:20.169Z,8.70
2018-04-15T21:10:48.523Z,12.20
2018-04-15T21:13:16.117Z,9.67
2018-04-15T21:15:45.022Z,6.43
2018-04-15T21:18:12.572Z,8.30
2018-04-15T21:20:40.857Z,8.37
2018-04-15T21:23:09.237Z,7.13
2018-04-15T21:25:37.658Z,11.70
2018-04-15T21:28:05.216Z,13.80
2018-04-15T21:30:32.750Z,12.80
2018-04-15T21:33:01.024Z,11.90
2018-04-15T21:35:28.566Z,8.80
2018-04-15T21:37:56.082Z,9.23
2018-04-15T21:40:23.631Z,9.83
2018-04-15T21:42:51.919Z,12.30
2018-04-15T21:45:20.179Z,10.43
2018-04-15T21:47:48.501Z,12.73
2018-04-15T21:50:16.391Z,10.30
2018-04-15T21:52:43.923Z,21.17
2018-04-15T21:55:11.433Z,10.90
2018-04-15T21:57:39.773Z,13.80
2018-04-15T22:00:07.280Z,16.73
2018-04-15T22:02:34.793Z,11.70
2018-04-15T22:05:02.339Z,9.30
2018-04-15T22:07:30.619Z,13.20
2018-04-15T22:09:58.907Z,13.03
2018-04-15T22:12:27.182Z,11.13
2018-04-15T22:14:55.480Z,10.93
2018-04-15T22:17:23.002Z,10.33
2018-04-15T22:19:50.548Z,9.33
2018-04-15T22:22:18.054Z,9.57
2018-04-15T22:24:46.333Z,12.40
2018-04-15T22:27:14.633Z,20.60
2018-04-15T22:29:42.152Z,16.00
2018-04-15T22:32:09.681Z,9.53
2018-04-15T22:34:37.198Z,11.97
2018-04-15T22:37:04.708Z,12.17
2018-04-15T22:39:32.226Z,15.30
2018-04-15T22:41:59.756Z,13.10
2018-04-15T22:44:27.286Z,18.47
2018-04-15T22:46:55.692Z,26.93
2018-04-15T22:49:23.229Z,22.50
2018-04-15T22:51:50.753Z,17.63
2018-04-15T22:54:18.277Z,13.43
2018-04-15T22:56:45.806Z,17.83
2018-04-15T22:59:14.091Z,15.87
2018-04-15T23:01:41.597Z,17.10
2018-04-15T23:04:09.137Z,18.83
2018-04-15T23:06:36.651Z,13.10
2018-04-15T23:09:05.004Z,13.20
2018-04-15T23:11:32.524Z,16.20
2018-04-15T23:14:00.811Z,10.63
2018-04-15T23:16:29.112Z,13.90
2018-04-15T23:18:56.625Z,10.93
2018-04-15T23:21:24.149Z,15.07
2018-04-15T23:23:51.661Z,12.70
2018-04-15T23:26:19.203Z,15.30
2018-04-15T23:28:46.715Z,13.17
2018-04-15T23:31:14.235Z,15.27
2018-04-15T23:33:41.753Z,11.77
2018-04-15T23:36:09.257Z,14.13
2018-04-15T23:38:36.790Z,9.70
2018-04-15T23:41:04.302Z,12.30
2018-04-15T23:43:31.840Z,13.27
2018-04-15T23:45:59.360Z,12.00
2018-04-15T23:48:27.625Z,11.07
2018-04-15T23:50:55.923Z,15.53
2018-04-15T23:53:23.450Z,18.23
2018-04-15T23:55:50.979Z,16.53
2018-04-15T23:58:18.502Z,20.20
